Terminal Aerodrome Forecast
Issued by NWS

Home | Current Version | Previous Version | Text Only | Print | Product List | Glossary On
Versions: 1 2 3 4 5 6 7 8 9 10 11
000
FTUS45 KGJT 130531
TAFRIL
TAF
KRIL 130531Z 1306/1406 11005KT P6SM SKC
     FM131900 28005KT P6SM FEW150 SCT250
     FM140000 VRB03KT P6SM BKN130 BKN150=

USA.gov is the U.S. government's official web portal to all federal, state and local government web resources and services.